Angleton, TX (77515)

10:57 AM CDT on August 31, 2015 (GMT -0500)
Akers Subdivision | | Change Station
CLOSE
Current Station
Personal Weather Station
Location: Angleton, TX
Elevation: 43 ft
Nearby Weather Stations

Elev 43 ft 29.17 °N, 95.43 °W | Updated 59 seconds ago

Partly Cloudy
Partly Cloudy
82.2 °F
Feels Like 89 °F
N
1.7
Wind Variable Wind from ENE

Today
High -- | Low -- °F
--% Chance of Precip.
Yesterday
High -- | Low -- °F
Precip. -- in
6:58 AM 7:44 PM
Waning Gibbous, 95% visible
Pressure 30.04 in
Visibility 10.0 miles
Clouds Clear
Heat Index 89 °F
Dew Point 75 °F
Humidity 78%
Rainfall 0.02 in
Snow Depth Not available.
UV 7 out of 12
Pollen 6.00 out of 12
Air Quality Not available.
Flu Activity Not available.
METAR KLBX 311550Z AUTO 10006KT 10SM VCTS CLR 28/22 A3004 RMK AO2 LTG DSNT S-W
Pressure 30.04 in
Visibility 10.0 miles
Clouds Clear
Heat Index 89 °F
Dew Point 75 °F
Humidity 78%
Rainfall 0.02 in
Snow Depth Not available.
UV 7 out of 12
Pollen 6.00 out of 12
Air Quality Not available.
Flu Activity Not available.
METAR KLBX 311550Z AUTO 10006KT 10SM VCTS CLR 28/22 A3004 RMK AO2 LTG DSNT S-W

10-Day Weather Forecast

×

Almanac

Astronomy

Aug. 31, 2015 Rise Set
Actual Time
Civil Twilight
Nautical Twilight
Astronomical Twilight
Moon
Length of Visible Light
Length of Day
Tomorrow will be .
, % of the Moon is Illuminated

Today's Extremes

State Highs State Lows

Community

WunderPhotos

Upload Photos

1,851,282 photos uploaded!

WunderBlogs® & News

Nearby

Air Quality

  Air Quality AQ Index Pollutant
Not available.

Snow Depth

Station Depth Elevation

Earthquake Activity

City Distance Mag. Time & Date
Minimum magnitude displayed is 2.5.

Coastal Water Temperatures

Place Temperature

Stations

Nearby Weather Stations

Station Location Temp. Windchill Dew Point Humidity Wind Precip. Elev Updated Type